createdAt,value
2018-02-23T00:00:48.899Z,0.48
2018-02-23T00:04:13.286Z,0.31
2018-02-23T00:07:47.718Z,0.58
2018-02-23T00:11:11.023Z,0.27
2018-02-23T00:14:34.353Z,0.46
2018-02-23T00:17:57.611Z,0.39
2018-02-23T00:21:20.909Z,0.38
2018-02-23T00:24:44.270Z,0.42
2018-02-23T00:28:07.583Z,0.18
2018-02-23T00:31:31.693Z,0.28
2018-02-23T00:34:55.930Z,0.19
2018-02-23T00:38:20.005Z,0.31
2018-02-23T00:41:44.050Z,0.40
2018-02-23T00:45:08.092Z,0.58
2018-02-23T00:48:32.164Z,0.40
2018-02-23T00:51:56.292Z,0.19
2018-02-23T00:55:19.663Z,0.41
2018-02-23T00:58:42.965Z,0.41
2018-02-23T01:02:06.253Z,0.41
2018-02-23T01:05:29.670Z,0.08
2018-02-23T01:08:53.671Z,0.27
2018-02-23T01:12:17.724Z,0.21
2018-02-23T01:15:41.006Z,0.04
2018-02-23T01:19:04.320Z,0.24
2018-02-23T01:22:27.600Z,0.48
2018-02-23T01:25:50.894Z,0.20
2018-02-23T01:29:14.185Z,0.12
2018-02-23T01:32:38.329Z,0.29
2018-02-23T01:36:02.449Z,0.27
2018-02-23T01:39:25.753Z,0.15
2018-02-23T01:42:49.848Z,0.29
2018-02-23T01:46:13.201Z,0.36
2018-02-23T01:49:37.275Z,0.36
2018-02-23T01:53:00.569Z,0.15
2018-02-23T02:04:23.287Z,0.17
2018-02-23T02:07:46.613Z,0.05
2018-02-23T02:11:10.045Z,0.02
2018-02-23T02:14:33.421Z,0.15
2018-02-23T02:17:56.783Z,0.39
2018-02-23T02:21:20.157Z,0.14
2018-02-23T02:24:43.475Z,0.06
2018-02-23T02:28:07.515Z,0.33
2018-02-23T02:31:30.827Z,0.22
2018-02-23T02:34:54.116Z,0.21
2018-02-23T02:38:18.146Z,0.37
2018-02-23T02:41:42.187Z,0.20
2018-02-23T02:45:06.310Z,0.47
2018-02-23T02:48:29.669Z,0.32
2018-02-23T02:51:53.056Z,0.38
2018-02-23T02:55:17.227Z,0.41
2018-02-23T02:58:40.505Z,0.31
2018-02-23T03:02:04.561Z,0.21
2018-02-23T03:05:28.634Z,0.10
2018-02-23T03:08:52.695Z,0.38
2018-02-23T03:12:16.787Z,0.09
2018-02-23T03:15:40.099Z,0.09
2018-02-23T03:19:03.390Z,-0.14
2018-02-23T03:22:27.453Z,-0.02
2018-02-23T03:25:50.725Z,0.18
2018-02-23T03:29:14.121Z,-0.05
2018-02-23T03:32:37.495Z,0.18
2018-02-23T03:36:01.534Z,0.16
2018-02-23T03:39:25.579Z,-0.13
2018-02-23T03:42:48.868Z,0.21
2018-02-23T03:46:12.161Z,0.40
2018-02-23T03:49:38.126Z,0.17
2018-02-23T03:53:01.497Z,0.33
2018-02-23T03:56:24.792Z,0.27
2018-02-23T03:59:48.127Z,0.35
2018-02-23T04:03:11.478Z,0.34
2018-02-23T04:06:35.645Z,0.54
2018-02-23T04:09:59.013Z,0.13
2018-02-23T04:13:22.303Z,0.19
2018-02-23T04:16:45.592Z,0.08
2018-02-23T04:20:08.869Z,0.29
2018-02-23T04:23:32.169Z,0.12
2018-02-23T04:26:55.453Z,0.39
2018-02-23T04:30:18.781Z,0.48
2018-02-23T04:33:42.842Z,0.50
2018-02-23T04:37:06.119Z,0.21
2018-02-23T04:40:29.416Z,0.09
2018-02-23T04:43:53.449Z,0.30
2018-02-23T04:47:17.577Z,0.22
2018-02-23T04:50:41.607Z,0.13
2018-02-23T04:54:05.664Z,0.15
2018-02-23T04:57:29.014Z,0.24
2018-02-23T05:00:52.382Z,0.10
2018-02-23T05:04:15.726Z,0.13
2018-02-23T05:07:39.069Z,0.19
2018-02-23T05:11:02.363Z,0.15
2018-02-23T05:14:26.526Z,-0.04
2018-02-23T05:17:49.896Z,0.15
2018-02-23T05:21:13.222Z,0.16
2018-02-23T05:24:37.275Z,0.07
2018-02-23T05:28:00.571Z,0.24
2018-02-23T05:31:23.864Z,-0.01
2018-02-23T05:34:47.551Z,0.10
2018-02-23T05:38:10.818Z,0.12
2018-02-23T05:41:34.223Z,-0.03
2018-02-23T05:44:58.295Z,0.05
2018-02-23T05:48:21.669Z,0.27
2018-02-23T05:51:45.039Z,0.13
2018-02-23T05:55:08.338Z,-0.01
2018-02-23T05:58:31.729Z,-0.10
2018-02-23T06:01:55.081Z,0.14
2018-02-23T06:05:18.461Z,0.07
2018-02-23T06:08:41.781Z,0.18
2018-02-23T06:12:05.151Z,0.07
2018-02-23T06:19:31.107Z,-0.21
2018-02-23T06:22:54.373Z,0.02
2018-02-23T06:26:17.706Z,0.11
2018-02-23T06:29:41.779Z,0.05
2018-02-23T06:33:05.108Z,-0.21
2018-02-23T06:36:29.233Z,0.16
2018-02-23T06:39:52.542Z,-0.11
2018-02-23T06:43:15.839Z,-0.12
2018-02-23T06:46:39.914Z,-0.25
2018-02-23T06:50:03.289Z,-0.05
2018-02-23T06:53:26.597Z,0.35
2018-02-23T06:56:50.059Z,-0.04
2018-02-23T07:00:13.347Z,0.05
2018-02-23T07:03:37.409Z,-0.29
2018-02-23T07:07:00.752Z,0.06
2018-02-23T07:10:24.035Z,-0.28
2018-02-23T07:13:48.107Z,-0.43
2018-02-23T07:17:12.183Z,0.06
2018-02-23T07:20:35.557Z,0.17
2018-02-23T07:23:58.901Z,0.20
2018-02-23T07:27:22.191Z,0.12
2018-02-23T07:30:45.522Z,0.61
2018-02-23T07:34:09.609Z,0.09
2018-02-23T07:37:33.749Z,-0.10
2018-02-23T07:40:57.832Z,0.10
2018-02-23T07:44:21.181Z,-0.37
2018-02-23T07:47:44.485Z,-0.42
2018-02-23T07:51:08.537Z,0.02
2018-02-23T07:54:31.831Z,-0.20
2018-02-23T07:57:55.896Z,-0.33
2018-02-23T08:01:19.307Z,-0.14
2018-02-23T08:04:42.597Z,-0.26
2018-02-23T08:08:05.909Z,-0.19
2018-02-23T08:11:29.211Z,-0.05
2018-02-23T08:14:52.557Z,-0.17
2018-02-23T08:18:15.856Z,-0.04
2018-02-23T08:21:39.182Z,-0.51
2018-02-23T08:25:02.488Z,-0.19
2018-02-23T08:28:29.487Z,-0.23
2018-02-23T08:31:53.242Z,-0.03
2018-02-23T08:35:18.499Z,-0.10
2018-02-23T08:38:41.823Z,0.15
2018-02-23T08:42:05.283Z,-0.14
2018-02-23T08:45:28.650Z,-0.16
2018-02-23T08:48:52.099Z,-0.21
2018-02-23T08:52:15.406Z,0.01
2018-02-23T08:55:38.786Z,0.12
2018-02-23T08:59:02.159Z,0.17
2018-02-23T09:02:25.543Z,-0.02
2018-02-23T09:05:49.627Z,-0.38
2018-02-23T09:09:13.705Z,-0.26
2018-02-23T09:12:36.994Z,-0.41
2018-02-23T09:16:01.108Z,-0.02
2018-02-23T09:19:24.481Z,-0.01
2018-02-23T09:22:47.815Z,-0.30
2018-02-23T09:26:11.885Z,-0.07
2018-02-23T09:29:35.153Z,-0.10
2018-02-23T09:32:59.230Z,-0.04
2018-02-23T09:36:22.509Z,0.24
2018-02-23T09:39:45.875Z,0.14
2018-02-23T09:43:09.145Z,0.17
2018-02-23T09:46:32.411Z,0.28
2018-02-23T09:49:55.782Z,0.05
2018-02-23T09:53:19.108Z,-0.17
2018-02-23T09:56:43.189Z,0.04
2018-02-23T10:00:07.232Z,-0.29
2018-02-23T10:03:31.325Z,0.01
2018-02-23T10:06:55.421Z,-0.23
2018-02-23T10:10:18.720Z,-0.45
2018-02-23T10:13:42.757Z,-0.02
2018-02-23T10:17:06.911Z,-0.12
2018-02-23T10:20:31.031Z,-0.13
2018-02-23T10:23:54.301Z,-0.24
2018-02-23T10:27:17.576Z,0.13
2018-02-23T10:30:41.620Z,0.10
2018-02-23T10:34:05.668Z,-0.20
2018-02-23T10:37:28.943Z,-0.38
2018-02-23T10:40:52.205Z,0.11
2018-02-23T10:44:15.491Z,-0.13
2018-02-23T10:47:39.630Z,0.08
2018-02-23T10:51:02.905Z,0.13
2018-02-23T10:54:27.035Z,-0.05
2018-02-23T10:57:50.357Z,0.02
2018-02-23T11:01:13.653Z,0.07
2018-02-23T11:04:36.920Z,0.04
2018-02-23T11:08:00.273Z,-0.21
2018-02-23T11:11:24.301Z,0.13
2018-02-23T11:14:48.356Z,0.27
2018-02-23T11:18:12.398Z,0.16
2018-02-23T11:21:35.688Z,0.33
2018-02-23T11:24:59.024Z,0.25
2018-02-23T11:28:22.320Z,0.52
2018-02-23T11:31:45.697Z,0.10
2018-02-23T11:35:09.760Z,0.03
2018-02-23T11:38:33.028Z,0.20
2018-02-23T11:41:56.372Z,0.53
2018-02-23T11:45:19.642Z,0.37
2018-02-23T11:48:42.907Z,0.41
2018-02-23T11:52:06.343Z,-0.01
2018-02-23T11:55:29.664Z,0.27
2018-02-23T11:58:53.724Z,0.24
2018-02-23T12:02:17.100Z,0.61
2018-02-23T12:05:40.472Z,0.65
2018-02-23T12:09:03.748Z,0.22
2018-02-23T12:12:27.888Z,0.23
2018-02-23T12:15:52.045Z,0.08
2018-02-23T12:19:15.387Z,0.02
2018-02-23T12:22:38.717Z,0.33
2018-02-23T12:26:02.843Z,-0.05
2018-02-23T12:29:26.115Z,0.07
2018-02-23T12:32:50.147Z,0.16
2018-02-23T12:36:13.435Z,0.03
2018-02-23T12:39:37.552Z,0.26
2018-02-23T12:43:01.009Z,0.19
2018-02-23T12:46:24.345Z,0.53
2018-02-23T12:49:48.639Z,0.66
2018-02-23T12:53:12.770Z,0.42
2018-02-23T12:56:36.144Z,0.65
2018-02-23T12:59:59.479Z,0.56
2018-02-23T13:03:23.765Z,0.35
2018-02-23T13:06:47.906Z,0.64
2018-02-23T13:10:12.096Z,0.47
2018-02-23T13:13:36.198Z,0.38
2018-02-23T13:16:59.526Z,0.44
2018-02-23T13:20:22.940Z,0.04
2018-02-23T13:23:46.270Z,0.20
2018-02-23T13:27:15.372Z,-0.02
2018-02-23T13:30:38.778Z,0.10
2018-02-23T13:34:03.012Z,0.12
2018-02-23T13:37:27.168Z,0.18
2018-02-23T13:44:50.232Z,0.31
2018-02-23T13:48:13.772Z,0.01
2018-02-23T13:51:37.228Z,0.30
2018-02-23T13:55:01.348Z,0.27
2018-02-23T13:58:25.896Z,0.37
2018-02-23T14:01:49.180Z,-0.03
2018-02-23T14:05:12.553Z,0.35
2018-02-23T14:08:35.841Z,0.19
2018-02-23T14:12:00.832Z,0.01
2018-02-23T14:15:24.122Z,0.37
2018-02-23T14:18:47.409Z,0.54
2018-02-23T14:22:10.741Z,0.47
2018-02-23T14:25:34.777Z,0.28
2018-02-23T14:28:58.807Z,0.22
2018-02-23T14:32:22.065Z,-0.01
2018-02-23T14:35:45.363Z,0.16
2018-02-23T14:39:08.689Z,0.34
2018-02-23T14:42:31.948Z,0.05
2018-02-23T14:45:56.086Z,-0.10
2018-02-23T14:49:20.131Z,0.07
2018-02-23T14:52:43.464Z,0.12
2018-02-23T14:56:06.777Z,0.17
2018-02-23T14:59:30.117Z,0.28
2018-02-23T15:02:54.245Z,0.25
2018-02-23T15:06:17.517Z,-0.01
2018-02-23T15:09:40.945Z,0.32
2018-02-23T15:13:04.993Z,0.47
2018-02-23T15:16:29.027Z,0.25
2018-02-23T15:19:52.328Z,0.09
2018-02-23T15:23:15.603Z,-0.01
2018-02-23T15:26:39.656Z,0.03
2018-02-23T15:30:03.700Z,0.14
2018-02-23T15:33:26.978Z,0.13
2018-02-23T15:36:50.303Z,-0.03
2018-02-23T15:40:13.623Z,0.15
2018-02-23T15:43:36.957Z,0.18
2018-02-23T15:47:01.009Z,0.05
2018-02-23T15:54:21.228Z,-0.14
2018-02-23T15:57:55.222Z,-0.09
2018-02-23T16:01:18.564Z,-0.03
2018-02-23T16:04:41.852Z,0.10
2018-02-23T16:08:05.131Z,-0.05
2018-02-23T16:11:28.484Z,0.03
2018-02-23T16:14:51.770Z,-0.01
2018-02-23T16:18:15.049Z,0.01
2018-02-23T16:21:39.177Z,0.26
2018-02-23T16:25:02.585Z,-0.14
2018-02-23T16:28:26.983Z,0.11
2018-02-23T16:31:50.483Z,-0.10
2018-02-23T16:35:13.940Z,0.08
2018-02-23T16:38:37.426Z,0.05
2018-02-23T16:42:01.631Z,0.13
2018-02-23T16:45:25.001Z,0.45
2018-02-23T16:48:48.489Z,0.00
2018-02-23T16:52:12.774Z,0.22
2018-02-23T16:55:36.195Z,0.32
2018-02-23T16:58:59.598Z,0.15
2018-02-23T17:02:23.639Z,0.37
2018-02-23T17:05:47.036Z,0.19
2018-02-23T17:09:10.665Z,0.18
2018-02-23T17:12:34.715Z,0.13
2018-02-23T17:15:58.851Z,0.21
2018-02-23T17:19:22.890Z,0.24
2018-02-23T17:22:47.014Z,0.11
2018-02-23T17:26:11.146Z,0.02
2018-02-23T17:29:34.419Z,0.07
2018-02-23T17:32:58.556Z,0.24
2018-02-23T17:36:21.927Z,-0.23
2018-02-23T17:39:45.200Z,0.27
2018-02-23T17:43:09.330Z,0.02
2018-02-23T17:46:32.776Z,0.19
2018-02-23T17:49:56.087Z,-0.06
2018-02-23T17:53:20.199Z,0.01
2018-02-23T17:56:44.240Z,0.36
2018-02-23T18:00:07.630Z,0.11
2018-02-23T18:03:31.675Z,0.21
2018-02-23T18:06:54.991Z,0.06
2018-02-23T18:10:18.268Z,-0.05
2018-02-23T18:13:41.669Z,0.11
2018-02-23T18:17:05.662Z,-0.25
2018-02-23T18:20:29.252Z,-0.10
2018-02-23T18:23:52.648Z,-0.01
2018-02-23T18:27:17.036Z,0.06
2018-02-23T18:30:41.128Z,0.22
2018-02-23T18:34:05.317Z,0.17
2018-02-23T18:37:29.452Z,0.43
2018-02-23T18:40:53.502Z,0.27
2018-02-23T18:44:17.560Z,0.07
2018-02-23T18:47:40.995Z,0.09
2018-02-23T18:51:05.040Z,0.51
2018-02-23T18:54:29.094Z,0.37
2018-02-23T18:57:52.533Z,0.29
2018-02-23T19:01:15.908Z,0.10
2018-02-23T19:04:39.232Z,0.41
2018-02-23T19:08:03.362Z,0.23
2018-02-23T19:11:26.662Z,0.17
2018-02-23T19:14:49.947Z,0.31
2018-02-23T19:18:13.325Z,0.14
2018-02-23T19:21:37.419Z,0.24
2018-02-23T19:25:01.564Z,0.36
2018-02-23T19:28:25.848Z,0.07
2018-02-23T19:31:49.311Z,0.23
2018-02-23T19:35:13.465Z,0.36
2018-02-23T19:38:37.644Z,0.08
2018-02-23T19:42:02.068Z,0.46
2018-02-23T19:45:25.464Z,0.20
2018-02-23T19:48:49.542Z,-0.11
2018-02-23T19:52:13.764Z,0.17
2018-02-23T19:55:37.144Z,0.31
2018-02-23T19:59:00.965Z,0.23
2018-02-23T20:02:24.476Z,0.17
2018-02-23T20:05:50.288Z,0.19
2018-02-23T20:09:14.622Z,0.26
2018-02-23T20:12:37.957Z,0.12
2018-02-23T20:16:02.304Z,0.32
2018-02-23T20:19:26.347Z,0.22
2018-02-23T20:22:49.697Z,0.38
2018-02-23T20:26:14.658Z,0.25
2018-02-23T20:29:38.107Z,0.46
2018-02-23T20:33:01.757Z,0.69
2018-02-23T20:36:25.253Z,0.27
2018-02-23T20:39:50.176Z,0.27
2018-02-23T20:43:14.782Z,0.27
2018-02-23T20:46:39.186Z,0.35
2018-02-23T20:50:02.524Z,0.36
2018-02-23T20:53:25.899Z,0.11
2018-02-23T20:56:49.295Z,0.06
2018-02-23T21:00:13.555Z,0.43
2018-02-23T21:03:38.072Z,0.19
2018-02-23T21:07:02.231Z,0.43
2018-02-23T21:10:25.719Z,0.36
2018-02-23T21:13:49.892Z,0.13
2018-02-23T21:17:13.386Z,0.34
2018-02-23T21:20:37.494Z,0.24
2018-02-23T21:24:01.606Z,0.36
2018-02-23T21:27:25.127Z,0.34
2018-02-23T21:30:50.302Z,0.51
2018-02-23T21:34:13.697Z,0.25
2018-02-23T21:38:03.128Z,0.44
2018-02-23T21:41:27.633Z,0.46
2018-02-23T21:44:51.239Z,0.58
2018-02-23T21:48:15.434Z,0.36
2018-02-23T21:51:39.689Z,0.35
2018-02-23T21:55:03.269Z,0.44
2018-02-23T21:58:26.762Z,0.12
2018-02-23T22:01:50.945Z,0.12
2018-02-23T22:05:14.345Z,0.19
2018-02-23T22:08:38.824Z,0.46
2018-02-23T22:12:03.052Z,0.36
2018-02-23T22:15:27.453Z,0.52
2018-02-23T22:18:51.746Z,0.55
2018-02-23T22:22:15.466Z,0.58
2018-02-23T22:25:39.092Z,0.30
2018-02-23T22:29:02.790Z,0.44
2018-02-23T22:32:27.300Z,0.35
2018-02-23T22:35:51.755Z,0.29
2018-02-23T22:39:17.259Z,0.39
2018-02-23T22:42:40.737Z,0.39
2018-02-23T22:46:19.521Z,0.27
2018-02-23T22:49:45.197Z,0.44
2018-02-23T22:53:12.526Z,0.30
2018-02-23T22:56:35.977Z,0.62
2018-02-23T23:00:04.289Z,0.62
2018-02-23T23:03:27.720Z,0.82
2018-02-23T23:06:53.305Z,0.52
2018-02-23T23:10:16.651Z,0.51
2018-02-23T23:13:39.963Z,0.33
2018-02-23T23:17:04.327Z,0.35
2018-02-23T23:20:28.404Z,0.52
2018-02-23T23:23:51.920Z,0.51
2018-02-23T23:27:15.439Z,0.58
2018-02-23T23:30:38.824Z,0.58
2018-02-23T23:34:03.302Z,0.68
2018-02-23T23:37:27.164Z,0.54
2018-02-23T23:40:52.320Z,0.50
2018-02-23T23:44:16.762Z,0.60
2018-02-23T23:47:40.920Z,0.27
2018-02-23T23:51:05.031Z,0.61
2018-02-23T23:54:28.400Z,0.67
2018-02-23T23:57:51.774Z,0.79
